createdAt,value
2022-10-01T00:01:07.162Z,100.00
2022-10-01T00:03:34.920Z,100.00
2022-10-01T00:06:06.408Z,100.00
2022-10-01T00:08:33.824Z,100.00
2022-10-01T00:11:01.612Z,100.00
2022-10-01T00:13:30.617Z,100.00
2022-10-01T00:15:57.569Z,100.00
2022-10-01T00:18:24.082Z,100.00
2022-10-01T00:20:50.769Z,100.00
2022-10-01T00:23:19.383Z,100.00
2022-10-01T00:25:46.016Z,100.00
2022-10-01T00:28:12.694Z,100.00
2022-10-01T00:30:46.511Z,100.00
2022-10-01T00:33:13.090Z,100.00
2022-10-01T00:35:39.665Z,100.00
2022-10-01T00:38:06.249Z,100.00
2022-10-01T00:40:39.370Z,100.00
2022-10-01T00:43:31.400Z,100.00
2022-10-01T00:46:09.441Z,100.00
2022-10-01T00:49:01.865Z,100.00
2022-10-01T00:51:33.284Z,100.00
2022-10-01T00:54:08.792Z,100.00
2022-10-01T00:56:36.852Z,100.00
2022-10-01T00:59:04.538Z,100.00
2022-10-01T01:01:31.466Z,100.00
2022-10-01T01:03:58.812Z,100.00
2022-10-01T01:06:25.547Z,100.00
2022-10-01T01:08:55.193Z,100.00
2022-10-01T01:11:32.134Z,100.00
2022-10-01T01:14:12.188Z,100.00
2022-10-01T01:17:01.472Z,100.00
2022-10-01T01:19:43.435Z,100.00
2022-10-01T01:22:13.434Z,100.00
2022-10-01T01:24:51.675Z,100.00
2022-10-01T01:27:29.007Z,100.00
2022-10-01T01:30:03.776Z,100.00
2022-10-01T01:32:53.006Z,100.00
2022-10-01T01:35:26.559Z,100.00
2022-10-01T01:37:58.772Z,100.00
2022-10-01T01:40:27.242Z,100.00
2022-10-01T01:42:56.246Z,100.00
2022-10-01T01:45:30.755Z,100.00
2022-10-01T01:48:02.179Z,100.00
2022-10-01T01:50:34.429Z,100.00
2022-10-01T01:53:01.179Z,100.00
2022-10-01T01:55:30.039Z,100.00
2022-10-01T01:57:57.217Z,100.00
2022-10-01T02:00:23.945Z,100.00
2022-10-01T02:02:53.957Z,100.00
2022-10-01T02:05:25.802Z,100.00
2022-10-01T02:08:33.073Z,100.00
2022-10-01T02:11:23.734Z,100.00
2022-10-01T02:14:21.371Z,100.00
2022-10-01T02:17:03.629Z,100.00
2022-10-01T02:19:46.007Z,100.00
2022-10-01T02:22:44.918Z,100.00
2022-10-01T02:25:15.501Z,100.00
2022-10-01T02:27:48.802Z,100.00
2022-10-01T02:30:15.491Z,100.00
2022-10-01T02:32:46.018Z,100.00
2022-10-01T02:35:16.356Z,100.00
2022-10-01T02:37:45.313Z,100.00
2022-10-01T02:40:16.239Z,100.00
2022-10-01T02:42:50.003Z,100.00
2022-10-01T02:45:22.808Z,100.00
2022-10-01T02:47:59.012Z,100.00
2022-10-01T02:50:32.226Z,100.00
2022-10-01T02:53:07.073Z,100.00
2022-10-01T02:55:37.864Z,100.00
2022-10-01T02:58:05.394Z,100.00
2022-10-01T03:00:32.361Z,100.00
2022-10-01T03:02:59.120Z,100.00
2022-10-01T03:05:25.966Z,100.00
2022-10-01T03:07:52.992Z,100.00
2022-10-01T03:10:19.841Z,100.00
2022-10-01T03:12:46.936Z,100.00
2022-10-01T03:15:15.333Z,100.00
2022-10-01T03:17:41.866Z,100.00
2022-10-01T03:20:09.744Z,100.00
2022-10-01T03:22:36.429Z,100.00
2022-10-01T03:25:03.551Z,100.00
2022-10-01T03:27:30.310Z,100.00
2022-10-01T03:29:56.892Z,100.00
2022-10-01T03:32:23.504Z,100.00
2022-10-01T03:34:50.132Z,100.00
2022-10-01T03:37:16.747Z,100.00
2022-10-01T03:39:43.271Z,100.00
2022-10-01T03:42:09.817Z,100.00
2022-10-01T03:44:36.427Z,100.00
2022-10-01T03:47:02.994Z,100.00
2022-10-01T03:49:29.534Z,100.00
2022-10-01T03:51:56.556Z,100.00
2022-10-01T03:54:23.373Z,100.00
2022-10-01T03:56:49.977Z,100.00
2022-10-01T03:59:16.609Z,100.00
2022-10-01T04:01:43.217Z,100.00
2022-10-01T04:04:10.006Z,100.00
2022-10-01T04:06:36.610Z,100.00
2022-10-01T04:09:03.379Z,100.00
2022-10-01T04:11:30.373Z,100.00
2022-10-01T04:13:59.928Z,100.00
2022-10-01T04:16:26.479Z,100.00
2022-10-01T04:18:53.846Z,100.00
2022-10-01T04:21:20.443Z,100.00
2022-10-01T04:23:47.152Z,100.00
2022-10-01T04:26:13.773Z,100.00
2022-10-01T04:28:40.364Z,100.00
2022-10-01T04:31:25.173Z,100.00
2022-10-01T04:33:53.847Z,100.00
2022-10-01T04:36:20.916Z,100.00
2022-10-01T04:38:51.012Z,100.00
2022-10-01T04:41:17.617Z,100.00
2022-10-01T04:43:44.258Z,100.00
2022-10-01T04:46:10.821Z,100.00
2022-10-01T04:48:37.310Z,100.00
2022-10-01T04:51:03.952Z,100.00
2022-10-01T04:53:30.750Z,100.00
2022-10-01T04:55:57.302Z,100.00
2022-10-01T04:58:24.034Z,100.00
2022-10-01T05:00:50.859Z,100.00
2022-10-01T05:03:17.921Z,100.00
2022-10-01T05:05:44.607Z,100.00
2022-10-01T05:08:11.161Z,100.00
2022-10-01T05:10:37.844Z,100.00
2022-10-01T05:13:04.448Z,100.00
2022-10-01T05:15:31.251Z,100.00
2022-10-01T05:17:57.826Z,100.00
2022-10-01T05:20:27.069Z,100.00
2022-10-01T05:22:54.471Z,100.00
2022-10-01T05:25:21.313Z,100.00
2022-10-01T05:27:47.970Z,100.00
2022-10-01T05:30:24.060Z,100.00
2022-10-01T05:32:56.417Z,100.00
2022-10-01T05:35:23.438Z,100.00
2022-10-01T05:37:54.015Z,100.00
2022-10-01T05:40:20.652Z,100.00
2022-10-01T05:42:47.542Z,100.00
2022-10-01T05:45:14.261Z,100.00
2022-10-01T05:47:42.407Z,100.00
2022-10-01T05:50:09.697Z,100.00
2022-10-01T05:52:36.263Z,100.00
2022-10-01T05:55:03.054Z,100.00
2022-10-01T05:57:31.139Z,100.00
2022-10-01T05:59:58.030Z,100.00
2022-10-01T06:02:24.737Z,100.00
2022-10-01T06:04:51.616Z,100.00
2022-10-01T06:07:18.345Z,100.00
2022-10-01T06:09:45.249Z,100.00
2022-10-01T06:12:13.662Z,100.00
2022-10-01T06:14:43.021Z,100.00
2022-10-01T06:17:09.576Z,100.00
2022-10-01T06:19:36.158Z,100.00
2022-10-01T06:22:02.692Z,100.00
2022-10-01T06:24:30.248Z,100.00
2022-10-01T06:26:57.170Z,100.00
2022-10-01T06:29:24.061Z,100.00
2022-10-01T06:31:51.912Z,100.00
2022-10-01T06:34:18.693Z,100.00
2022-10-01T06:36:45.439Z,100.00
2022-10-01T06:39:12.001Z,100.00
2022-10-01T06:41:38.591Z,100.00
2022-10-01T06:44:05.273Z,100.00
2022-10-01T06:46:32.450Z,100.00
2022-10-01T06:48:59.342Z,100.00
2022-10-01T06:51:44.519Z,100.00
2022-10-01T06:54:11.099Z,100.00
2022-10-01T06:56:37.772Z,100.00
2022-10-01T06:59:04.447Z,100.00
2022-10-01T07:01:33.029Z,98.42
2022-10-01T07:03:59.801Z,96.62
2022-10-01T07:06:26.533Z,94.41
2022-10-01T07:08:53.225Z,93.00
2022-10-01T07:11:20.430Z,92.83
2022-10-01T07:13:49.992Z,92.83
2022-10-01T07:16:19.083Z,93.52
2022-10-01T07:18:45.611Z,92.27
2022-10-01T07:21:12.230Z,84.87
2022-10-01T07:23:38.830Z,84.38
2022-10-01T07:26:06.115Z,83.09
2022-10-01T07:28:32.634Z,91.54
2022-10-01T07:31:06.862Z,82.15
2022-10-01T07:33:33.442Z,75.47
2022-10-01T07:36:01.733Z,78.04
2022-10-01T07:38:28.869Z,77.27
2022-10-01T07:40:55.470Z,81.41
2022-10-01T07:43:22.709Z,82.75
2022-10-01T07:45:50.256Z,77.04
2022-10-01T07:48:17.173Z,79.71
2022-10-01T07:50:47.525Z,73.85
2022-10-01T07:53:14.378Z,74.13
2022-10-01T07:55:40.952Z,74.70
2022-10-01T07:58:08.121Z,77.08
2022-10-01T08:00:35.383Z,81.90
2022-10-01T08:03:02.039Z,79.18
2022-10-01T08:05:31.194Z,63.94
2022-10-01T08:08:03.570Z,69.34
2022-10-01T08:10:30.674Z,73.40
2022-10-01T08:13:08.210Z,66.00
2022-10-01T08:15:35.582Z,68.54
2022-10-01T08:18:05.597Z,73.27
2022-10-01T08:20:32.550Z,64.06
2022-10-01T08:23:07.784Z,65.43
2022-10-01T08:25:35.100Z,71.44
2022-10-01T08:28:02.058Z,70.71
2022-10-01T08:30:29.682Z,70.21
2022-10-01T08:32:58.177Z,72.99
2022-10-01T08:35:25.511Z,71.08
2022-10-01T08:37:52.205Z,65.89
2022-10-01T08:40:21.658Z,66.99
2022-10-01T08:42:51.150Z,73.52
2022-10-01T08:45:27.118Z,60.57
2022-10-01T08:48:07.616Z,65.56
2022-10-01T08:50:56.284Z,64.53
2022-10-01T08:53:38.331Z,65.67
2022-10-01T08:56:12.955Z,67.41
2022-10-01T08:58:45.777Z,66.18
2022-10-01T09:01:12.457Z,65.72
2022-10-01T09:03:40.339Z,68.63
2022-10-01T09:06:21.517Z,64.33
2022-10-01T09:09:20.403Z,63.90
2022-10-01T09:12:14.132Z,62.57
2022-10-01T09:15:17.966Z,60.88
2022-10-01T09:17:44.402Z,66.43
2022-10-01T09:20:27.499Z,64.16
2022-10-01T09:23:18.845Z,62.05
2022-10-01T09:25:50.310Z,64.58
2022-10-01T09:28:30.219Z,65.10
2022-10-01T09:30:59.133Z,65.66
2022-10-01T09:33:33.722Z,65.01
2022-10-01T09:36:34.227Z,64.38
2022-10-01T09:39:21.842Z,66.86
2022-10-01T09:41:48.474Z,64.98
2022-10-01T09:44:28.828Z,63.58
2022-10-01T09:46:55.658Z,64.13
2022-10-01T09:49:31.646Z,64.19
2022-10-01T09:52:04.204Z,62.99
2022-10-01T09:54:46.874Z,60.10
2022-10-01T09:57:36.094Z,59.61
2022-10-01T10:00:18.300Z,62.22
2022-10-01T10:02:50.491Z,69.16
2022-10-01T10:05:20.486Z,64.63
2022-10-01T10:07:51.791Z,62.26
2022-10-01T10:10:28.564Z,63.09
2022-10-01T10:13:01.845Z,64.05
2022-10-01T10:15:31.370Z,64.64
2022-10-01T10:18:07.167Z,64.02
2022-10-01T10:20:41.476Z,63.45
2022-10-01T10:23:17.402Z,63.20
2022-10-01T10:25:44.238Z,63.33
2022-10-01T10:28:23.697Z,61.95
2022-10-01T10:30:54.042Z,62.72
2022-10-01T10:33:23.400Z,62.09
2022-10-01T10:36:05.145Z,63.23
2022-10-01T10:38:34.839Z,62.17
2022-10-01T10:41:03.979Z,63.16
2022-10-01T10:43:36.599Z,60.39
2022-10-01T10:46:03.693Z,61.24
2022-10-01T10:48:35.346Z,58.11
2022-10-01T10:51:04.891Z,61.57
2022-10-01T10:53:44.250Z,58.36
2022-10-01T10:56:21.897Z,60.12
2022-10-01T10:58:49.983Z,60.23
2022-10-01T11:01:28.784Z,61.36
2022-10-01T11:03:58.663Z,59.74
2022-10-01T11:06:25.590Z,61.45
2022-10-01T11:09:07.241Z,58.85
2022-10-01T11:11:48.648Z,58.72
2022-10-01T11:14:31.188Z,57.34
2022-10-01T11:17:20.320Z,58.51
2022-10-01T11:20:02.182Z,60.89
2022-10-01T11:22:46.901Z,58.40
2022-10-01T11:25:35.638Z,56.56
2022-10-01T11:28:57.674Z,56.44
2022-10-01T11:31:47.261Z,58.51
2022-10-01T11:34:55.245Z,57.75
2022-10-01T11:37:33.743Z,57.37
2022-10-01T11:40:05.135Z,57.85
2022-10-01T11:42:36.809Z,59.39
2022-10-01T11:45:11.259Z,60.62
2022-10-01T11:48:01.948Z,58.20
2022-10-01T11:50:39.051Z,58.99
2022-10-01T11:53:17.983Z,58.09
2022-10-01T11:56:10.741Z,56.91
2022-10-01T11:58:54.734Z,56.87
2022-10-01T12:01:24.963Z,56.88
2022-10-01T12:03:54.606Z,57.49
2022-10-01T12:06:33.773Z,57.86
2022-10-01T12:09:15.006Z,57.02
2022-10-01T12:11:54.556Z,54.67
2022-10-01T12:14:31.644Z,52.99
2022-10-01T12:17:13.671Z,54.02
2022-10-01T12:19:45.244Z,56.21
2022-10-01T12:22:24.555Z,56.48
2022-10-01T12:24:53.202Z,56.89
2022-10-01T12:27:32.020Z,56.29
2022-10-01T12:30:07.816Z,57.56
2022-10-01T12:33:01.923Z,55.35
2022-10-01T12:35:51.920Z,55.33
2022-10-01T12:38:45.048Z,53.46
2022-10-01T12:41:43.116Z,54.50
2022-10-01T12:44:27.537Z,54.68
2022-10-01T12:47:14.616Z,55.94
2022-10-01T12:49:58.515Z,55.90
2022-10-01T12:52:40.323Z,55.39
2022-10-01T12:55:43.424Z,54.79
2022-10-01T12:58:39.995Z,54.14
2022-10-01T13:01:19.192Z,54.00
2022-10-01T13:06:55.227Z,53.06
2022-10-01T13:09:38.516Z,53.25
2022-10-01T13:12:05.378Z,53.89
2022-10-01T13:14:34.784Z,52.77
2022-10-01T13:17:21.569Z,53.98
2022-10-01T13:19:58.276Z,53.59
2022-10-01T13:22:42.926Z,53.92
2022-10-01T13:25:25.124Z,52.12
2022-10-01T13:27:56.069Z,53.34
2022-10-01T13:30:24.932Z,52.30
2022-10-01T13:32:57.864Z,53.51
2022-10-01T13:35:35.956Z,52.88
2022-10-01T13:38:13.681Z,52.22
2022-10-01T13:40:41.060Z,52.06
2022-10-01T13:43:16.703Z,52.96
2022-10-01T13:45:46.426Z,52.87
2022-10-01T13:48:18.400Z,53.76
2022-10-01T13:51:10.745Z,52.94
2022-10-01T13:53:47.446Z,51.01
2022-10-01T13:56:28.521Z,52.34
2022-10-01T13:58:55.558Z,52.76
2022-10-01T14:01:24.354Z,51.94
2022-10-01T14:03:55.622Z,53.18
2022-10-01T14:06:33.200Z,52.76
2022-10-01T14:09:11.796Z,52.74
2022-10-01T14:12:00.850Z,54.50
2022-10-01T14:14:50.525Z,52.05
2022-10-01T14:17:22.426Z,52.05
2022-10-01T14:19:50.890Z,51.75
2022-10-01T14:22:46.710Z,50.56
2022-10-01T14:25:35.453Z,52.41
2022-10-01T14:28:25.400Z,52.31
2022-10-01T14:31:33.804Z,51.07
2022-10-01T14:34:06.270Z,51.64
2022-10-01T14:36:35.681Z,53.03
2022-10-01T14:39:19.835Z,52.43
2022-10-01T14:41:51.993Z,52.70
2022-10-01T14:44:22.045Z,52.36
2022-10-01T14:46:49.976Z,52.17
2022-10-01T14:49:34.804Z,52.17
2022-10-01T14:52:07.281Z,52.35
2022-10-01T14:54:56.218Z,52.14
2022-10-01T14:57:35.006Z,50.87
2022-10-01T15:00:08.926Z,51.20
2022-10-01T15:02:50.836Z,51.69
2022-10-01T15:05:26.599Z,50.99
2022-10-01T15:07:53.681Z,51.38
2022-10-01T15:10:24.847Z,50.79
2022-10-01T15:12:52.816Z,51.86
2022-10-01T15:15:39.477Z,50.16
2022-10-01T15:18:06.888Z,50.29
2022-10-01T15:20:34.240Z,50.03
2022-10-01T15:23:01.789Z,50.51
2022-10-01T15:25:31.482Z,51.16
2022-10-01T15:27:58.135Z,52.12
2022-10-01T15:30:30.502Z,52.05
2022-10-01T15:32:57.644Z,52.98
2022-10-01T15:35:25.059Z,50.74
2022-10-01T15:37:53.927Z,51.44
2022-10-01T15:40:29.149Z,49.91
2022-10-01T15:43:21.672Z,50.08
2022-10-01T15:46:31.376Z,49.66
2022-10-01T15:49:19.716Z,50.49
2022-10-01T15:52:17.960Z,50.87
2022-10-01T15:54:45.984Z,52.12
2022-10-01T15:57:20.949Z,51.50
2022-10-01T15:59:50.066Z,52.43
2022-10-01T16:02:26.270Z,52.42
2022-10-01T16:04:55.994Z,53.23
2022-10-01T16:07:29.496Z,53.15
2022-10-01T16:09:59.158Z,53.24
2022-10-01T16:12:29.370Z,52.44
2022-10-01T16:15:01.462Z,51.33
2022-10-01T16:17:35.369Z,51.72
2022-10-01T16:20:14.050Z,52.15
2022-10-01T16:22:40.740Z,52.42
2022-10-01T16:25:25.568Z,52.81
2022-10-01T16:27:55.358Z,53.35
2022-10-01T16:30:27.687Z,53.75
2022-10-01T16:32:55.430Z,54.72
2022-10-01T16:35:33.048Z,55.15
2022-10-01T16:38:01.031Z,55.93
2022-10-01T16:40:33.036Z,56.45
2022-10-01T16:43:00.691Z,56.53
2022-10-01T16:45:32.758Z,56.64
2022-10-01T16:48:00.527Z,57.13
2022-10-01T16:50:27.371Z,57.28
2022-10-01T16:52:55.744Z,57.87
2022-10-01T16:55:26.148Z,57.99
2022-10-01T16:57:57.084Z,58.42
2022-10-01T17:00:26.910Z,59.39
2022-10-01T17:02:55.451Z,59.47
2022-10-01T17:05:27.079Z,59.86
2022-10-01T17:07:55.086Z,60.40
2022-10-01T17:10:23.614Z,60.42
2022-10-01T17:12:50.359Z,61.10
2022-10-01T17:15:20.087Z,61.21
2022-10-01T17:17:48.415Z,60.69
2022-10-01T17:20:15.258Z,60.61
2022-10-01T17:22:44.904Z,61.84
2022-10-01T17:25:18.901Z,62.37
2022-10-01T17:27:46.067Z,62.69
2022-10-01T17:30:13.167Z,62.87
2022-10-01T17:32:40.371Z,63.30
2022-10-01T17:35:08.054Z,62.95
2022-10-01T17:37:34.943Z,64.55
2022-10-01T17:40:02.167Z,64.60
2022-10-01T17:42:29.142Z,63.51
2022-10-01T17:44:56.038Z,64.99
2022-10-01T17:47:22.931Z,65.42
2022-10-01T17:49:49.460Z,65.69
2022-10-01T17:52:16.769Z,64.98
2022-10-01T17:54:43.897Z,66.64
2022-10-01T17:57:13.816Z,66.41
2022-10-01T17:59:40.734Z,66.17
2022-10-01T18:02:23.558Z,65.49
2022-10-01T18:04:54.365Z,66.49
2022-10-01T18:07:21.256Z,66.42
2022-10-01T18:09:47.802Z,65.87
2022-10-01T18:12:14.662Z,67.53
2022-10-01T18:14:43.495Z,67.42
2022-10-01T18:17:10.236Z,68.66
2022-10-01T18:19:53.722Z,68.09
2022-10-01T18:22:29.556Z,67.50
2022-10-01T18:24:56.266Z,68.66
2022-10-01T18:27:22.941Z,67.89
2022-10-01T18:29:49.799Z,68.59
2022-10-01T18:32:23.729Z,68.12
2022-10-01T18:34:59.287Z,68.16
2022-10-01T18:37:57.806Z,70.24
2022-10-01T18:40:29.713Z,69.39
2022-10-01T18:43:02.438Z,71.56
2022-10-01T18:45:46.905Z,71.58
2022-10-01T18:48:25.610Z,70.87
2022-10-01T18:51:11.880Z,72.74
2022-10-01T18:54:31.929Z,72.26
2022-10-01T18:57:28.403Z,72.56
2022-10-01T19:00:17.644Z,72.56
2022-10-01T19:03:02.996Z,72.93
2022-10-01T19:05:47.655Z,72.14
2022-10-01T19:08:24.501Z,72.28
2022-10-01T19:11:17.820Z,73.37
2022-10-01T19:13:44.670Z,71.38
2022-10-01T19:16:44.283Z,74.17
2022-10-01T19:19:40.069Z,73.64
2022-10-01T19:22:47.879Z,74.92
2022-10-01T19:25:32.626Z,76.26
2022-10-01T19:28:29.277Z,78.04
2022-10-01T19:31:08.075Z,77.44
2022-10-01T19:33:42.078Z,79.05
2022-10-01T19:36:17.637Z,76.99
2022-10-01T19:38:47.185Z,78.10
2022-10-01T19:41:18.041Z,77.35
2022-10-01T19:44:24.820Z,78.20
2022-10-01T19:46:56.408Z,78.39
2022-10-01T19:49:33.968Z,79.78
2022-10-01T19:52:04.355Z,79.75
2022-10-01T19:54:34.847Z,79.59
2022-10-01T19:57:17.224Z,80.32
2022-10-01T19:59:47.300Z,80.51
2022-10-01T20:02:21.730Z,79.92
2022-10-01T20:04:58.820Z,80.79
2022-10-01T20:07:56.119Z,80.91
2022-10-01T20:10:45.312Z,81.32
2022-10-01T20:13:14.780Z,82.20
2022-10-01T20:16:38.376Z,81.46
2022-10-01T20:19:23.445Z,81.76
2022-10-01T20:22:06.342Z,82.71
2022-10-01T20:25:05.194Z,82.15
2022-10-01T20:27:49.154Z,82.40
2022-10-01T20:30:21.058Z,84.00
2022-10-01T20:33:49.553Z,84.27
2022-10-01T20:36:23.577Z,85.27
2022-10-01T20:38:57.306Z,85.90
2022-10-01T20:41:29.725Z,86.36
2022-10-01T20:44:00.060Z,86.40
2022-10-01T20:46:33.981Z,86.17
2022-10-01T20:49:05.409Z,87.70
2022-10-01T20:51:43.651Z,87.26
2022-10-01T20:54:15.610Z,88.13
2022-10-01T20:56:47.653Z,88.97
2022-10-01T20:59:24.040Z,89.45
2022-10-01T21:02:02.507Z,89.87
2022-10-01T21:04:43.407Z,88.25
2022-10-01T21:07:36.717Z,89.57
2022-10-01T21:10:21.279Z,89.70
2022-10-01T21:12:59.890Z,87.83
2022-10-01T21:15:43.705Z,89.09
2022-10-01T21:18:33.599Z,89.31
2022-10-01T21:21:32.731Z,89.14
2022-10-01T21:24:06.479Z,89.74
2022-10-01T21:26:54.393Z,88.46
2022-10-01T21:29:39.824Z,88.91
2022-10-01T21:32:06.664Z,90.30
2022-10-01T21:34:50.253Z,89.87
2022-10-01T21:37:45.857Z,90.14
2022-10-01T21:40:43.194Z,90.53
2022-10-01T21:43:47.828Z,90.72
2022-10-01T21:46:41.121Z,90.91
2022-10-01T21:49:13.594Z,92.14
2022-10-01T21:51:55.188Z,91.99
2022-10-01T21:54:40.729Z,92.47
2022-10-01T21:57:10.571Z,93.94
2022-10-01T21:59:46.068Z,91.69
2022-10-01T22:02:48.944Z,93.32
2022-10-01T22:05:37.946Z,92.64
2022-10-01T22:08:16.529Z,92.96
2022-10-01T22:10:46.941Z,93.75
2022-10-01T22:13:23.494Z,92.92
2022-10-01T22:15:54.284Z,93.24
2022-10-01T22:18:36.833Z,93.70
2022-10-01T22:21:10.745Z,93.92
2022-10-01T22:23:41.943Z,93.43
2022-10-01T22:26:16.493Z,93.66
2022-10-01T22:28:47.999Z,92.21
2022-10-01T22:31:25.977Z,92.67
2022-10-01T22:33:57.429Z,92.58
2022-10-01T22:36:44.364Z,93.44
2022-10-01T22:39:17.588Z,93.50
2022-10-01T22:41:56.463Z,93.55
2022-10-01T22:44:23.591Z,92.78
2022-10-01T22:46:55.998Z,94.89
2022-10-01T22:55:19.536Z,95.90
2022-10-01T22:57:56.166Z,97.14
2022-10-01T23:00:23.096Z,97.13
2022-10-01T23:03:06.964Z,97.51
2022-10-01T23:05:52.501Z,96.84
2022-10-01T23:08:43.460Z,97.45
2022-10-01T23:11:25.117Z,97.84
2022-10-01T23:14:22.696Z,98.69
2022-10-01T23:17:04.757Z,99.55
2022-10-01T23:19:41.691Z,100.00
2022-10-01T23:22:11.322Z,100.00
2022-10-01T23:25:15.996Z,100.00
2022-10-01T23:28:13.805Z,100.00
2022-10-01T23:31:19.488Z,100.00
2022-10-01T23:33:53.982Z,100.00
2022-10-01T23:37:21.589Z,100.00
2022-10-01T23:40:04.412Z,99.47
2022-10-01T23:42:49.500Z,98.69
2022-10-01T23:45:28.189Z,98.96
2022-10-01T23:48:08.428Z,99.24
2022-10-01T23:50:58.925Z,97.80
2022-10-01T23:53:32.786Z,98.41
2022-10-01T23:56:23.532Z,98.67
2022-10-01T23:59:03.184Z,99.84
